createdAt,value
2023-01-10T00:03:00.423Z,5.84
2023-01-10T00:06:01.891Z,5.84
2023-01-10T00:09:03.705Z,5.70
2023-01-10T00:12:23.759Z,5.73
2023-01-10T00:15:25.227Z,5.89
2023-01-10T00:18:26.641Z,6.03
2023-01-10T00:21:28.595Z,5.99
2023-01-10T00:24:30.019Z,5.91
2023-01-10T00:27:31.545Z,6.06
2023-01-10T00:30:35.160Z,5.82
2023-01-10T00:33:38.028Z,6.04
2023-01-10T00:36:39.636Z,6.03
2023-01-10T00:39:41.134Z,6.12
2023-01-10T00:43:01.197Z,6.04
2023-01-10T00:46:02.873Z,6.03
2023-01-10T00:49:12.053Z,5.93
2023-01-10T00:52:13.483Z,6.00
2023-01-10T00:55:14.950Z,6.14
2023-01-10T00:58:17.298Z,6.26
2023-01-10T01:01:18.821Z,6.01
2023-01-10T01:04:20.375Z,6.06
2023-01-10T01:07:21.835Z,5.80
2023-01-10T01:10:26.323Z,5.92
2023-01-10T01:13:27.745Z,6.02
2023-01-10T01:16:29.544Z,6.00
2023-01-10T01:19:30.984Z,6.07
2023-01-10T01:22:32.473Z,5.80
2023-01-10T01:25:33.991Z,6.04
2023-01-10T01:28:35.461Z,6.11
2023-01-10T01:31:36.864Z,6.24
2023-01-10T01:34:38.286Z,6.18
2023-01-10T01:37:40.553Z,6.01
2023-01-10T01:40:42.026Z,5.96
2023-01-10T01:44:17.503Z,5.92
2023-01-10T01:47:26.386Z,6.00
2023-01-10T01:50:34.425Z,6.04
2023-01-10T01:53:50.236Z,6.01
2023-01-10T01:56:55.747Z,6.20
2023-01-10T01:59:57.689Z,6.00
2023-01-10T02:03:03.058Z,5.97
2023-01-10T02:06:05.592Z,6.07
2023-01-10T02:09:19.664Z,6.15
2023-01-10T02:12:21.335Z,6.16
2023-01-10T02:15:22.806Z,6.23
2023-01-10T02:18:24.733Z,6.17
2023-01-10T02:21:32.208Z,6.10
2023-01-10T02:25:19.693Z,6.06
2023-01-10T02:28:30.136Z,5.98
2023-01-10T02:31:59.643Z,6.13
2023-01-10T02:35:13.378Z,6.13
2023-01-10T02:38:43.863Z,6.11
2023-01-10T02:41:53.363Z,6.19
2023-01-10T02:45:10.099Z,6.17
2023-01-10T02:48:11.546Z,6.04
2023-01-10T02:51:21.870Z,5.94
2023-01-10T02:54:27.570Z,5.86
2023-01-10T02:57:49.681Z,6.09
2023-01-10T03:01:36.278Z,6.14
2023-01-10T03:05:03.835Z,5.97
2023-01-10T03:08:24.137Z,5.99
2023-01-10T03:11:43.095Z,6.03
2023-01-10T03:14:47.169Z,5.81
2023-01-10T03:17:54.555Z,5.96
2023-01-10T03:20:58.229Z,5.81
2023-01-10T03:24:05.781Z,5.76
2023-01-10T03:27:45.025Z,5.70
2023-01-10T03:30:51.926Z,5.96
2023-01-10T03:33:53.370Z,5.79
2023-01-10T03:37:14.268Z,5.89
2023-01-10T03:40:36.952Z,5.87
2023-01-10T03:44:04.291Z,5.95
2023-01-10T03:47:14.959Z,5.91
2023-01-10T03:50:20.838Z,5.82
2023-01-10T03:53:22.562Z,5.80
2023-01-10T03:56:24.148Z,5.89
2023-01-10T03:59:27.382Z,5.93
2023-01-10T04:02:30.969Z,6.05
2023-01-10T04:05:32.391Z,5.97
2023-01-10T04:08:33.861Z,6.01
2023-01-10T04:11:35.296Z,5.93
2023-01-10T04:14:36.738Z,5.71
2023-01-10T04:17:38.182Z,5.76
2023-01-10T04:20:39.593Z,5.95
2023-01-10T04:23:41.032Z,5.98
2023-01-10T04:26:42.467Z,5.65
2023-01-10T04:29:43.894Z,5.70
2023-01-10T04:32:45.908Z,5.73
2023-01-10T04:35:48.931Z,5.92
2023-01-10T04:38:50.323Z,5.95
2023-01-10T04:41:51.697Z,5.70
2023-01-10T04:44:53.093Z,5.64
2023-01-10T04:47:56.080Z,5.69
2023-01-10T04:50:57.592Z,5.83
2023-01-10T04:53:59.397Z,5.97
2023-01-10T04:57:00.882Z,5.96
2023-01-10T05:00:02.303Z,5.76
2023-01-10T05:03:04.073Z,5.73
2023-01-10T05:06:05.962Z,5.73
2023-01-10T05:09:08.584Z,5.88
2023-01-10T05:12:10.050Z,5.73
2023-01-10T05:15:11.583Z,5.57
2023-01-10T05:18:13.010Z,5.75
2023-01-10T05:21:15.248Z,5.75
2023-01-10T05:24:16.683Z,5.76
2023-01-10T05:27:18.101Z,5.82
2023-01-10T05:30:19.559Z,5.70
2023-01-10T05:33:20.932Z,5.70
2023-01-10T05:36:22.401Z,5.81
2023-01-10T05:39:23.822Z,5.73
2023-01-10T05:42:25.266Z,5.81
2023-01-10T05:45:26.688Z,5.86
2023-01-10T05:48:28.195Z,5.85
2023-01-10T05:51:30.185Z,5.86
2023-01-10T05:54:31.597Z,5.90
2023-01-10T05:57:33.090Z,5.84
2023-01-10T06:00:34.469Z,5.79
2023-01-10T06:03:36.783Z,5.86
2023-01-10T06:06:38.096Z,5.82
2023-01-10T06:09:39.465Z,5.78
2023-01-10T06:12:41.225Z,5.77
2023-01-10T06:15:43.312Z,5.83
2023-01-10T06:18:44.757Z,5.75
2023-01-10T06:21:46.202Z,5.90
2023-01-10T06:24:47.664Z,5.66
2023-01-10T06:27:49.044Z,5.46
2023-01-10T06:30:50.483Z,5.43
2023-01-10T06:33:52.102Z,5.41
2023-01-10T06:36:53.491Z,5.46
2023-01-10T06:39:54.882Z,5.33
2023-01-10T06:42:56.364Z,5.45
2023-01-10T06:45:57.799Z,5.25
2023-01-10T06:48:59.199Z,5.28
2023-01-10T06:52:00.631Z,5.37
2023-01-10T06:55:02.074Z,5.36
2023-01-10T06:58:04.575Z,5.24
2023-01-10T07:01:08.145Z,5.22
2023-01-10T07:04:09.691Z,5.00
2023-01-10T07:07:11.192Z,5.01
2023-01-10T07:10:13.147Z,5.06
2023-01-10T07:13:14.572Z,5.31
2023-01-10T07:16:16.500Z,5.29
2023-01-10T07:19:18.159Z,5.04
2023-01-10T07:22:19.578Z,5.21
2023-01-10T07:25:21.073Z,5.27
2023-01-10T07:28:22.506Z,5.37
2023-01-10T07:31:24.479Z,5.38
2023-01-10T07:34:26.001Z,5.22
2023-01-10T07:37:27.356Z,5.45
2023-01-10T07:40:29.466Z,5.49
2023-01-10T07:43:31.467Z,5.37
2023-01-10T07:46:32.972Z,5.45
2023-01-10T07:49:34.413Z,5.38
2023-01-10T07:52:35.886Z,5.41
2023-01-10T07:55:39.340Z,5.31
2023-01-10T07:58:40.897Z,5.29
2023-01-10T08:01:42.307Z,5.53
2023-01-10T08:04:43.704Z,5.70
2023-01-10T08:07:45.111Z,5.62
2023-01-10T08:10:46.521Z,5.65
2023-01-10T08:13:48.018Z,5.61
2023-01-10T08:16:49.400Z,5.46
2023-01-10T08:19:50.869Z,5.67
2023-01-10T08:22:52.253Z,5.79
2023-01-10T08:25:54.267Z,5.77
2023-01-10T08:28:55.693Z,5.81
2023-01-10T08:31:57.325Z,5.50
2023-01-10T08:34:59.356Z,5.80
2023-01-10T08:38:00.812Z,6.02
2023-01-10T08:41:02.333Z,5.90
2023-01-10T08:44:03.777Z,6.03
2023-01-10T08:47:05.189Z,5.89
2023-01-10T08:50:08.057Z,5.86
2023-01-10T08:53:09.632Z,5.53
2023-01-10T08:56:11.463Z,5.79
2023-01-10T08:59:12.898Z,5.97
2023-01-10T09:02:14.458Z,5.66
2023-01-10T09:05:27.134Z,5.70
2023-01-10T09:08:29.516Z,6.01
2023-01-10T09:11:30.915Z,5.76
2023-01-10T09:14:32.305Z,5.93
2023-01-10T09:17:33.713Z,6.00
2023-01-10T09:20:37.425Z,5.98
2023-01-10T09:23:40.419Z,5.86
2023-01-10T09:26:42.026Z,5.98
2023-01-10T09:29:43.480Z,5.93
2023-01-10T09:32:50.988Z,5.88
2023-01-10T09:35:52.440Z,5.85
2023-01-10T09:38:54.046Z,5.77
2023-01-10T09:42:28.292Z,5.85
2023-01-10T09:46:15.070Z,5.97
2023-01-10T09:49:54.137Z,6.17
2023-01-10T09:53:02.144Z,6.15
2023-01-10T09:56:06.103Z,6.10
2023-01-10T09:59:19.793Z,5.95
2023-01-10T10:02:32.845Z,6.16
2023-01-10T10:05:34.314Z,6.54
2023-01-10T10:08:36.163Z,6.17
2023-01-10T10:12:12.074Z,6.72
2023-01-10T10:15:32.139Z,6.45
2023-01-10T10:18:42.987Z,6.68
2023-01-10T10:22:08.508Z,6.63
2023-01-10T10:25:53.667Z,6.75
2023-01-10T10:29:07.607Z,6.87
2023-01-10T10:32:21.792Z,6.73
2023-01-10T10:35:29.448Z,7.09
2023-01-10T10:38:36.204Z,6.76
2023-01-10T10:41:42.869Z,6.79
2023-01-10T10:44:57.752Z,6.85
2023-01-10T10:48:17.929Z,7.42
2023-01-10T10:51:37.545Z,7.04
2023-01-10T10:54:39.045Z,6.94
2023-01-10T10:57:55.285Z,7.21
2023-01-10T11:01:01.353Z,7.09
2023-01-10T11:04:13.979Z,7.70
2023-01-10T11:07:17.813Z,7.76
2023-01-10T11:10:35.241Z,7.90
2023-01-10T11:13:46.493Z,7.61
2023-01-10T11:16:47.997Z,7.48
2023-01-10T11:20:06.068Z,7.09
2023-01-10T11:23:07.693Z,7.53
2023-01-10T11:26:26.406Z,7.48
2023-01-10T11:29:38.896Z,7.28
2023-01-10T11:32:49.562Z,7.56
2023-01-10T11:36:17.303Z,7.45
2023-01-10T11:39:18.844Z,7.49
2023-01-10T11:42:29.765Z,7.67
2023-01-10T11:45:36.093Z,8.21
2023-01-10T11:49:07.295Z,8.16
2023-01-10T11:52:29.598Z,7.87
2023-01-10T11:55:34.121Z,7.55
2023-01-10T11:58:38.314Z,7.57
2023-01-10T12:01:44.357Z,8.65
2023-01-10T12:04:48.907Z,8.70
2023-01-10T12:07:59.312Z,8.77
2023-01-10T12:11:17.294Z,8.71
2023-01-10T12:14:20.360Z,7.91
2023-01-10T12:17:35.612Z,7.79
2023-01-10T12:20:47.075Z,7.65
2023-01-10T12:23:50.773Z,8.10
2023-01-10T12:26:53.919Z,8.97
2023-01-10T12:30:06.969Z,8.88
2023-01-10T12:33:16.477Z,8.99
2023-01-10T12:36:44.859Z,8.66
2023-01-10T12:39:53.087Z,8.66
2023-01-10T12:43:23.997Z,8.76
2023-01-10T12:47:05.266Z,8.15
2023-01-10T12:50:00.066Z,8.46
2023-01-10T12:53:15.736Z,8.23
2023-01-10T12:56:19.149Z,8.43
2023-01-10T12:59:37.147Z,8.00
2023-01-10T13:02:46.032Z,7.71
2023-01-10T13:05:49.631Z,7.92
2023-01-10T13:08:52.190Z,7.55
2023-01-10T13:12:07.088Z,7.63
2023-01-10T13:15:23.848Z,7.94
2023-01-10T13:18:28.415Z,8.00
2023-01-10T13:21:32.277Z,8.19
2023-01-10T13:24:33.980Z,7.84
2023-01-10T13:27:35.565Z,8.04
2023-01-10T13:30:42.071Z,7.94
2023-01-10T13:33:46.470Z,7.61
2023-01-10T13:36:56.594Z,7.41
2023-01-10T13:40:00.490Z,7.28
2023-01-10T13:43:34.205Z,7.47
2023-01-10T13:46:44.065Z,7.21
2023-01-10T13:49:45.663Z,7.48
2023-01-10T13:52:47.121Z,7.42
2023-01-10T13:55:56.427Z,7.43
2023-01-10T13:59:16.931Z,7.50
2023-01-10T14:02:34.218Z,7.34
2023-01-10T14:05:35.709Z,7.43
2023-01-10T14:08:38.661Z,7.41
2023-01-10T14:11:43.066Z,7.31
2023-01-10T14:14:52.368Z,7.62
2023-01-10T14:18:00.963Z,7.55
2023-01-10T14:21:06.235Z,7.51
2023-01-10T14:24:38.892Z,7.64
2023-01-10T14:27:46.886Z,7.36
2023-01-10T14:30:59.179Z,7.37
2023-01-10T14:34:02.898Z,7.82
2023-01-10T14:37:15.622Z,7.72
2023-01-10T14:40:32.552Z,7.60
2023-01-10T14:43:45.857Z,7.47
2023-01-10T14:46:49.771Z,7.58
2023-01-10T14:49:57.137Z,7.36
2023-01-10T14:52:59.829Z,7.63
2023-01-10T14:56:01.664Z,7.53
2023-01-10T14:59:21.969Z,7.27
2023-01-10T15:02:28.262Z,7.55
2023-01-10T15:05:39.440Z,7.51
2023-01-10T15:08:40.935Z,7.27
2023-01-10T15:11:42.827Z,7.51
2023-01-10T15:14:45.157Z,7.41
2023-01-10T15:17:47.051Z,7.29
2023-01-10T15:20:48.971Z,7.36
2023-01-10T15:23:50.500Z,7.39
2023-01-10T15:26:52.825Z,7.33
2023-01-10T15:29:54.637Z,7.11
2023-01-10T15:33:04.714Z,7.18
2023-01-10T15:36:12.472Z,7.17
2023-01-10T15:39:27.020Z,7.31
2023-01-10T15:42:28.823Z,7.15
2023-01-10T15:45:37.667Z,7.12
2023-01-10T15:48:41.324Z,7.07
2023-01-10T15:51:47.533Z,7.11
2023-01-10T15:54:49.469Z,6.98
2023-01-10T15:57:51.778Z,7.12
2023-01-10T16:00:54.405Z,7.01
2023-01-10T16:04:02.491Z,7.13
2023-01-10T16:07:19.433Z,7.00
2023-01-10T16:10:26.336Z,7.12
2023-01-10T16:13:28.356Z,7.08
2023-01-10T16:16:30.067Z,6.88
2023-01-10T16:19:31.715Z,7.06
2023-01-10T16:22:35.135Z,7.18
2023-01-10T16:25:39.289Z,7.04
2023-01-10T16:28:40.800Z,7.00
2023-01-10T16:31:42.642Z,6.81
2023-01-10T16:34:44.118Z,7.01
2023-01-10T16:37:48.555Z,7.02
2023-01-10T16:40:53.435Z,6.96
2023-01-10T16:43:55.120Z,6.81
2023-01-10T16:46:56.828Z,7.00
2023-01-10T16:49:58.233Z,6.83
2023-01-10T16:52:59.698Z,6.84
2023-01-10T16:56:01.119Z,7.12
2023-01-10T16:59:04.205Z,6.81
2023-01-10T17:02:15.814Z,6.75
2023-01-10T17:05:18.075Z,6.98
2023-01-10T17:08:21.140Z,6.97
2023-01-10T17:11:37.165Z,6.68
2023-01-10T17:14:38.849Z,6.89
2023-01-10T17:17:44.994Z,7.04
2023-01-10T17:20:46.756Z,6.81
2023-01-10T17:23:49.147Z,7.05
2023-01-10T17:26:50.560Z,6.88
2023-01-10T17:29:51.929Z,6.68
2023-01-10T17:32:53.331Z,7.13
2023-01-10T17:35:56.576Z,6.89
2023-01-10T17:38:58.224Z,7.03
2023-01-10T17:42:00.790Z,6.81
2023-01-10T17:45:02.224Z,6.93
2023-01-10T17:48:03.790Z,6.96
2023-01-10T17:51:06.050Z,6.75
2023-01-10T17:54:07.839Z,6.48
2023-01-10T17:57:09.389Z,6.91
2023-01-10T18:00:12.351Z,6.88
2023-01-10T18:03:14.137Z,6.97
2023-01-10T18:06:23.289Z,6.99
2023-01-10T18:09:25.984Z,6.93
2023-01-10T18:12:27.404Z,6.81
2023-01-10T18:15:28.804Z,6.83
2023-01-10T18:18:30.815Z,6.73
2023-01-10T18:21:32.256Z,6.79
2023-01-10T18:24:33.635Z,6.91
2023-01-10T18:27:36.135Z,6.64
2023-01-10T18:30:37.917Z,6.77
2023-01-10T18:33:39.900Z,6.74
2023-01-10T18:36:42.653Z,6.85
2023-01-10T18:39:44.201Z,6.79
2023-01-10T18:42:45.761Z,6.76
2023-01-10T18:45:47.922Z,6.73
2023-01-10T18:48:52.464Z,6.72
2023-01-10T18:51:53.881Z,6.77
2023-01-10T18:54:55.253Z,6.61
2023-01-10T18:57:56.706Z,6.44
2023-01-10T19:00:58.318Z,6.51
2023-01-10T19:03:59.746Z,6.33
2023-01-10T19:07:01.171Z,6.46
2023-01-10T19:10:03.369Z,6.74
2023-01-10T19:13:04.693Z,7.04
2023-01-10T19:16:21.807Z,6.92
2023-01-10T19:19:23.596Z,6.54
2023-01-10T19:22:25.121Z,7.09
2023-01-10T19:25:27.070Z,6.73
2023-01-10T19:28:29.853Z,6.85
2023-01-10T19:31:31.568Z,7.00
2023-01-10T19:34:33.061Z,7.28
2023-01-10T19:37:34.440Z,7.17
2023-01-10T19:40:36.118Z,7.17
2023-01-10T19:43:37.504Z,7.08
2023-01-10T19:46:40.519Z,7.11
2023-01-10T19:49:42.483Z,7.10
2023-01-10T19:52:46.384Z,6.99
2023-01-10T19:55:47.794Z,6.71
2023-01-10T19:58:50.378Z,6.85
2023-01-10T20:01:51.873Z,6.93
2023-01-10T20:04:53.389Z,7.00
2023-01-10T20:07:54.808Z,7.18
2023-01-10T20:10:58.633Z,7.29
2023-01-10T20:14:00.321Z,7.15
2023-01-10T20:17:02.258Z,7.15
2023-01-10T20:20:03.757Z,7.19
2023-01-10T20:23:06.923Z,7.29
2023-01-10T20:26:26.462Z,7.40
2023-01-10T20:29:27.954Z,7.26
2023-01-10T20:32:29.524Z,7.48
2023-01-10T20:35:30.998Z,7.13
2023-01-10T20:38:34.404Z,7.48
2023-01-10T20:41:37.187Z,7.49
2023-01-10T20:44:39.148Z,7.47
2023-01-10T20:47:40.555Z,7.27
2023-01-10T20:50:43.227Z,7.53
2023-01-10T20:53:44.746Z,7.64
2023-01-10T20:56:46.188Z,7.47
2023-01-10T20:59:47.573Z,7.85
2023-01-10T21:02:48.977Z,7.56
2023-01-10T21:05:51.705Z,7.68
2023-01-10T21:08:53.173Z,7.83
2023-01-10T21:12:04.375Z,7.88
2023-01-10T21:15:12.108Z,7.58
2023-01-10T21:18:15.462Z,7.59
2023-01-10T21:21:19.682Z,7.49
2023-01-10T21:24:22.847Z,7.69
2023-01-10T21:27:30.200Z,7.72
2023-01-10T21:30:31.639Z,7.58
2023-01-10T21:33:33.062Z,7.85
2023-01-10T21:36:34.455Z,7.28
2023-01-10T21:39:35.868Z,7.77
2023-01-10T21:42:44.752Z,7.66
2023-01-10T21:45:46.146Z,7.83
2023-01-10T21:48:48.146Z,7.81
2023-01-10T21:51:49.677Z,7.81
2023-01-10T21:54:51.219Z,7.79
2023-01-10T21:57:52.672Z,7.92
2023-01-10T22:00:56.646Z,7.73
2023-01-10T22:03:58.324Z,7.91
2023-01-10T22:06:59.879Z,8.07
2023-01-10T22:10:01.444Z,7.87
2023-01-10T22:13:02.896Z,8.13
2023-01-10T22:16:04.570Z,8.25
2023-01-10T22:19:06.053Z,7.98
2023-01-10T22:22:07.714Z,8.11
2023-01-10T22:25:09.414Z,7.86
2023-01-10T22:28:11.003Z,7.96
2023-01-10T22:31:13.207Z,8.09
2023-01-10T22:34:15.886Z,8.11
2023-01-10T22:37:17.586Z,8.37
2023-01-10T22:40:19.496Z,8.22
2023-01-10T22:43:20.996Z,8.00
2023-01-10T22:46:22.786Z,8.27
2023-01-10T22:49:24.181Z,8.36
2023-01-10T22:52:25.624Z,8.18
2023-01-10T22:55:27.191Z,8.13
2023-01-10T22:58:28.741Z,8.20
2023-01-10T23:01:30.625Z,8.20
2023-01-10T23:04:32.083Z,8.28
2023-01-10T23:07:33.512Z,8.25
2023-01-10T23:10:35.336Z,7.86
2023-01-10T23:13:36.970Z,8.35
2023-01-10T23:16:38.467Z,8.33
2023-01-10T23:19:40.069Z,8.19
2023-01-10T23:22:41.505Z,8.37
2023-01-10T23:25:43.383Z,8.04
2023-01-10T23:28:48.338Z,8.17
2023-01-10T23:31:49.965Z,8.51
2023-01-10T23:34:51.506Z,8.24
2023-01-10T23:37:54.086Z,8.39
2023-01-10T23:40:55.839Z,8.08
2023-01-10T23:43:57.306Z,8.31
2023-01-10T23:46:58.844Z,8.31
2023-01-10T23:50:01.092Z,8.12
2023-01-10T23:53:02.681Z,8.27
2023-01-10T23:56:12.914Z,8.32
2023-01-10T23:59:14.352Z,8.64
